Time;durP1;ratioP1;P1;durP2;ratioP2;P2;SDS_P1;SDS_P2;PMS_P1;PMS_P2;Temp;Humidity;BMP_temperature;BMP_pressure;BME280_temperature;BME280_humidity;BME280_pressure;Samples;Min_cycle;Max_cycle;Signal;HPM_P1;HPM_P2
2022/03/23 00:01:38;;;;;;;6.10;5.80;;;;;;;5.07;63.93;102482.25;6088364;23;20046;-65
2022/03/23 00:04:05;;;;;;;4.38;4.07;;;;;;;5.31;63.76;102513.47;6085851;23;25219;-65
2022/03/23 00:06:33;;;;;;;5.07;4.88;;;;;;;5.31;63.02;102520.41;6082838;23;20143;-66
2022/03/23 00:09:00;;;;;;;3.90;3.70;;;;;;;5.21;65.05;102545.56;6084089;23;20192;-65
2022/03/23 00:11:27;;;;;;;4.38;4.07;;;;;;;5.08;65.65;102515.22;6081633;23;20440;-65
2022/03/23 00:13:57;;;;;;;3.50;3.40;;;;;;;5.03;64.58;102519.53;6083994;23;20021;-65
2022/03/23 00:16:24;;;;;;;4.15;3.95;;;;;;;4.77;65.24;102508.28;6095252;23;20029;-65
2022/03/23 00:18:50;;;;;;;3.60;3.50;;;;;;;3.37;65.46;102284.53;6099085;23;20061;-66
2022/03/23 00:21:17;;;;;;;4.00;3.83;;;;;;;4.70;66.67;102526.47;6089516;23;20075;-66
2022/03/23 00:23:43;;;;;;;6.40;5.88;;;;;;;4.67;66.10;102524.72;6091367;23;20053;-65
2022/03/23 00:26:12;;;;;;;3.55;3.42;;;;;;;4.59;65.71;102510.81;6083130;23;20453;-66
2022/03/23 00:28:39;;;;;;;5.93;5.53;;;;;;;3.45;66.29;102331.28;6083109;23;20696;-66
2022/03/23 00:31:08;;;;;;;3.60;3.50;;;;;;;4.58;67.39;102519.50;6080951;23;20021;-65
2022/03/23 00:33:36;;;;;;;6.15;5.85;;;;;;;4.56;67.64;102523.81;6080763;23;20112;-65
2022/03/23 00:36:03;;;;;;;3.40;3.30;;;;;;;4.49;67.65;102516.88;6058036;23;20230;-65
2022/03/23 00:38:30;;;;;;;5.07;4.88;;;;;;;3.13;67.10;102290.50;6079408;23;20090;-65
2022/03/23 00:40:57;;;;;;;4.47;4.22;;;;;;;3.22;67.55;102333.75;6087670;23;20025;-66
2022/03/23 00:43:24;;;;;;;3.40;3.30;;;;;;;3.23;67.91;102351.06;6084127;23;20018;-65
2022/03/23 00:45:50;;;;;;;3.90;3.70;;;;;;;4.40;67.88;102510.78;6060316;23;20089;-65
2022/03/23 00:48:17;;;;;;;3.13;3.03;;;;;;;4.31;67.73;102502.97;6089734;23;20054;-65
2022/03/23 00:50:44;;;;;;;5.80;5.50;;;;;;;3.20;68.57;102310.41;6077961;23;20258;-65
2022/03/23 00:53:10;;;;;;;4.72;4.50;;;;;;;4.36;68.60;102514.25;6100364;23;20013;-65
2022/03/23 00:55:37;;;;;;;4.63;4.43;;;;;;;4.38;69.02;102541.09;6075298;23;20750;-64
2022/03/23 00:58:03;;;;;;;3.92;3.72;;;;;;;4.34;68.91;102534.16;6090550;23;20101;-65
2022/03/23 01:00:30;;;;;;;4.53;4.32;;;;;;;3.36;69.41;102363.22;6079142;23;20054;-66
2022/03/23 01:02:56;;;;;;;3.97;3.78;;;;;;;4.37;68.54;102526.38;6092820;23;20089;-65
2022/03/23 01:05:23;;;;;;;3.53;3.33;;;;;;;3.26;68.92;102345.03;6087574;23;20531;-65
2022/03/23 01:07:49;;;;;;;3.40;3.30;;;;;;;4.14;67.69;102468.25;6076675;23;20080;-65
2022/03/23 01:10:16;;;;;;;3.20;3.10;;;;;;;4.53;67.32;102524.69;6091760;23;20052;-67
2022/03/23 01:12:44;;;;;;;4.85;4.65;;;;;;;4.59;67.29;102526.41;6081288;23;20197;-65
2022/03/23 01:15:13;;;;;;;3.20;3.10;;;;;;;4.54;66.39;102503.00;6084021;23;20032;-65
2022/03/23 01:17:40;;;;;;;4.53;4.32;;;;;;;4.79;65.63;102523.84;6106966;23;20013;-64
2022/03/23 01:20:09;;;;;;;3.40;3.30;;;;;;;4.52;65.23;102463.16;6081626;23;20028;-65
2022/03/23 01:22:36;;;;;;;5.60;5.38;;;;;;;4.97;64.75;102516.09;6086329;23;20048;-64
2022/03/23 01:25:05;;;;;;;3.47;3.38;;;;;;;4.20;63.85;102385.13;6063384;23;20097;-65
2022/03/23 01:27:31;;;;;;;8.80;4.93;;;;;;;5.14;63.57;102516.06;6084955;23;20228;-65
2022/03/23 01:29:58;;;;;;;3.33;3.22;;;;;;;5.20;63.26;102513.47;6089324;23;20033;-65
2022/03/23 01:32:24;;;;;;;3.22;3.13;;;;;;;5.31;62.18;102521.28;6066542;23;20025;-66
2022/03/23 01:34:51;;;;;;;3.45;3.30;;;;;;;5.34;61.46;102516.06;6082581;23;21152;-65
2022/03/23 01:37:17;;;;;;;3.30;3.20;;;;;;;4.15;61.12;102327.06;6086882;23;20116;-65
2022/03/23 01:39:44;;;;;;;4.38;4.18;;;;;;;5.37;61.23;102517.78;6080135;23;20158;-65
2022/03/23 01:42:10;;;;;;;4.53;4.22;;;;;;;5.30;60.27;102503.06;6090008;23;20037;-65
2022/03/23 01:44:37;;;;;;;5.15;4.93;;;;;;;5.48;60.26;102528.22;6065525;23;20022;-65
2022/03/23 01:47:09;;;;;;;3.85;3.65;;;;;;;5.48;60.19;102513.44;6089575;23;20592;-66
2022/03/23 01:49:41;;;;;;;4.78;4.57;;;;;;;5.44;60.92;102506.50;6067059;23;20594;-65
2022/03/23 01:52:10;;;;;;;4.97;3.58;;;;;;;5.48;59.86;102509.97;6085330;23;20009;-66
2022/03/23 01:54:38;;;;;;;5.55;5.25;;;;;;;5.47;60.54;102511.72;6056326;23;20077;-67
2022/03/23 01:57:07;;;;;;;4.03;3.85;;;;;;;5.44;60.59;102511.72;6085975;23;20020;-67
2022/03/23 01:59:34;;;;;;;4.63;4.43;;;;;;;4.27;60.30;102313.22;6087617;23;20045;-67
2022/03/23 02:02:02;;;;;;;3.53;3.42;;;;;;;5.37;59.70;102500.44;6085576;23;20666;-65
2022/03/23 02:04:28;;;;;;;3.70;3.58;;;;;;;5.31;61.20;102497.84;6061797;23;20024;-64
2022/03/23 02:06:55;;;;;;;3.88;3.65;;;;;;;4.99;60.91;102454.50;6086282;23;20010;-65
2022/03/23 02:09:24;;;;;;;4.13;3.92;;;;;;;4.14;60.89;102317.56;6089486;23;20081;-64
2022/03/23 02:11:52;;;;;;;3.60;3.50;;;;;;;4.84;61.03;102445.84;6078467;23;20017;-65
2022/03/23 02:14:19;;;;;;;3.97;3.78;;;;;;;5.15;61.17;102506.53;6089810;23;20074;-65
2022/03/23 02:16:49;;;;;;;4.35;4.15;;;;;;;5.12;61.64;102506.53;6088426;23;20128;-65
2022/03/23 02:19:18;;;;;;;3.20;3.10;;;;;;;3.87;61.26;102292.41;6091515;23;20021;-64
2022/03/23 02:21:46;;;;;;;4.68;4.47;;;;;;;4.19;61.38;102354.81;6096752;23;20131;-65
2022/03/23 02:24:14;;;;;;;3.60;3.50;;;;;;;3.85;61.46;102300.22;6083776;23;20321;-65
2022/03/23 02:26:42;;;;;;;5.88;5.57;;;;;;;4.56;60.90;102427.63;6084945;23;20038;-65
2022/03/23 02:29:09;;;;;;;3.28;3.17;;;;;;;4.99;61.20;102496.13;6086666;23;20022;-67
2022/03/23 02:31:36;;;;;;;4.70;4.50;;;;;;;4.95;61.28;102496.13;6082079;23;20490;-67
2022/03/23 02:34:03;;;;;;;3.95;3.75;;;;;;;4.80;61.10;102481.38;6061144;23;20101;-67
2022/03/23 02:36:30;;;;;;;3.85;3.70;;;;;;;4.87;62.54;102496.16;6082690;23;20161;-66
2022/03/23 02:38:57;;;;;;;3.80;3.60;;;;;;;4.87;62.78;102500.44;6061859;23;20034;-67
2022/03/23 02:41:23;;;;;;;3.13;3.03;;;;;;;4.86;63.24;102485.72;6086722;23;20040;-67
2022/03/23 02:43:50;;;;;;;4.05;3.85;;;;;;;4.95;63.41;102486.59;6086993;23;20006;-65
2022/03/23 02:46:18;;;;;;;3.30;3.20;;;;;;;5.07;63.13;102488.34;6098200;23;20046;-65
2022/03/23 02:48:46;;;;;;;4.82;4.57;;;;;;;4.90;62.53;102461.44;6041216;23;20456;-65
2022/03/23 02:51:14;;;;;;;3.70;3.50;;;;;;;5.03;62.22;102494.38;6088192;23;20037;-65
2022/03/23 03:02:28;;;;;;;3.38;3.28;;;;;;;4.51;63.00;102507.34;6086592;23;20087;-65
2022/03/23 03:04:55;;;;;;;3.58;3.47;;;;;;;4.46;63.68;102511.69;6055894;23;20029;-65
2022/03/23 03:07:23;;;;;;;3.30;3.20;;;;;;;4.35;63.51;102507.31;6091153;23;20025;-66
2022/03/23 03:09:49;;;;;;;3.40;3.30;;;;;;;4.22;64.52;102505.53;6087948;23;20083;-65
2022/03/23 03:12:17;;;;;;;3.30;3.20;;;;;;;4.09;65.09;102504.63;6072997;23;20014;-65
2022/03/23 03:14:43;;;;;;;6.18;5.85;;;;;;;3.99;66.25;102506.31;6058464;23;20024;-65
2022/03/23 03:17:10;;;;;;;3.97;3.67;;;;;;;2.85;66.36;102327.53;6091256;23;20022;-65
2022/03/23 03:19:36;;;;;;;4.95;4.75;;;;;;;3.74;66.97;102494.94;6103225;23;20047;-65
2022/03/23 03:22:04;;;;;;;3.67;3.47;;;;;;;3.77;67.40;102504.50;6134029;23;20042;-65
2022/03/23 03:24:31;;;;;;;5.10;4.90;;;;;;;3.46;67.69;102472.28;6073679;23;20026;-65
2022/03/23 03:26:58;;;;;;;3.22;3.13;;;;;;;3.40;68.14;102473.97;6090046;23;20022;-65
2022/03/23 03:29:26;;;;;;;3.17;3.08;;;;;;;3.16;67.85;102459.13;6083805;23;20018;-65
2022/03/23 03:31:52;;;;;;;3.20;3.10;;;;;;;3.42;68.76;102504.28;6056657;23;21042;-65
2022/03/23 03:34:19;;;;;;;3.28;3.17;;;;;;;2.10;69.43;102305.34;6086834;23;20029;-65
2022/03/23 03:36:45;;;;;;;4.30;4.10;;;;;;;3.27;69.75;102505.91;6079702;23;20265;-66
2022/03/23 03:39:11;;;;;;;3.50;3.40;;;;;;;3.14;69.95;102502.34;6089066;23;20032;-65
2022/03/23 03:41:38;;;;;;;5.38;5.15;;;;;;;1.71;70.06;102293.78;6086163;23;20247;-65
2022/03/23 03:44:05;;;;;;;3.20;3.10;;;;;;;3.03;71.41;102519.56;6100504;23;20249;-65
2022/03/23 03:46:31;;;;;;;4.38;4.18;;;;;;;2.99;72.60;102529.03;6083851;23;20459;-65
2022/03/23 03:48:58;;;;;;;3.22;3.13;;;;;;;2.43;72.82;102438.66;6109633;23;20418;-65
2022/03/23 03:51:25;;;;;;;4.25;3.40;;;;;;;1.63;72.10;102330.78;6091618;23;20373;-65
2022/03/23 03:53:51;;;;;;;3.60;3.50;;;;;;;1.78;72.04;102354.22;6083998;23;20126;-65
2022/03/23 03:56:18;;;;;;;3.65;3.35;;;;;;;2.83;72.56;102527.16;6089143;23;20167;-66
2022/03/23 03:58:44;;;;;;;4.57;4.38;;;;;;;1.55;72.29;102333.28;6111968;23;20549;-65
2022/03/23 04:01:14;;;;;;;3.33;3.13;;;;;;;2.52;73.10;102476.72;6072061;23;20026;-65
2022/03/23 04:03:41;;;;;;;5.95;5.65;;;;;;;1.94;72.38;102370.81;6109128;23;20001;-65
2022/03/23 04:06:08;;;;;;;3.13;3.03;;;;;;;2.87;72.61;102525.47;6084271;23;20036;-65
2022/03/23 04:08:35;;;;;;;5.65;5.28;;;;;;;2.90;72.55;102531.53;6104985;23;20334;-65
2022/03/23 04:11:02;;;;;;;3.17;3.08;;;;;;;1.68;72.42;102316.16;6086099;23;20014;-65
2022/03/23 04:13:29;;;;;;;3.85;3.65;;;;;;;1.68;73.21;102329.09;6081213;23;20045;-65
2022/03/23 04:15:55;;;;;;;4.03;3.83;;;;;;;2.69;73.53;102513.19;6057268;23;20073;-65
2022/03/23 04:18:22;;;;;;;2.97;2.88;;;;;;;2.73;73.98;102527.94;6085195;23;20075;-65
2022/03/23 04:20:49;;;;;;;3.60;3.50;;;;;;;2.66;74.29;102542.53;6106475;23;20035;-65
2022/03/23 04:23:15;;;;;;;2.97;2.88;;;;;;;2.58;74.56;102526.91;6085692;23;20033;-64
2022/03/23 04:25:42;;;;;;;4.78;4.57;;;;;;;1.44;74.44;102340.91;6106765;23;20025;-65
2022/03/23 04:28:08;;;;;;;3.03;2.92;;;;;;;2.15;74.02;102486.72;6059073;23;20014;-65
2022/03/23 04:30:35;;;;;;;4.50;4.30;;;;;;;2.50;74.68;102535.44;6101920;23;20029;-65
2022/03/23 04:33:02;;;;;;;3.20;3.10;;;;;;;2.48;75.12;102550.13;6082697;23;20022;-65
2022/03/23 04:35:30;;;;;;;4.68;4.20;;;;;;;2.37;75.43;102535.31;6106600;23;20125;-64
2022/03/23 04:37:57;;;;;;;3.38;3.28;;;;;;;2.38;76.13;102547.41;6087558;23;20025;-65
2022/03/23 04:40:24;;;;;;;2.90;2.80;;;;;;;2.39;76.76;102549.16;6102554;23;20485;-64
2022/03/23 04:42:53;;;;;;;3.22;3.13;;;;;;;0.45;76.95;102227.59;6083632;23;20045;-65
2022/03/23 04:45:19;;;;;;;3.05;2.95;;;;;;;2.48;77.06;102574.28;6102958;23;20032;-65
2022/03/23 04:47:47;;;;;;;3.83;3.70;;;;;;;2.07;76.74;102471.06;6053787;23;20054;-65
2022/03/23 04:50:16;;;;;;;3.05;2.95;;;;;;;0.15;76.48;102135.94;6111947;23;20022;-65
2022/03/23 04:52:46;;;;;;;5.63;5.40;;;;;;;2.66;76.30;102562.41;6082557;23;20014;-65
2022/03/23 04:55:14;;;;;;;3.10;3.00;;;;;;;2.69;75.61;102549.50;6115058;23;20482;-65
2022/03/23 04:57:42;;;;;;;5.13;4.93;;;;;;;2.69;75.60;102555.53;6084576;23;20283;-65
2022/03/23 05:00:13;;;;;;;3.10;3.00;;;;;;;2.70;75.83;102552.06;6097845;23;20052;-65
2022/03/23 05:02:44;;;;;;;3.67;3.47;;;;;;;2.71;75.72;102553.81;6097431;23;20093;-65
2022/03/23 05:05:12;;;;;;;3.78;3.58;;;;;;;2.73;75.46;102557.31;6117472;23;20728;-65
2022/03/23 05:07:39;;;;;;;6.00;5.70;;;;;;;2.74;75.65;102559.03;6062531;23;20022;-66
2022/03/23 05:10:08;;;;;;;3.20;3.10;;;;;;;2.75;75.38;102560.78;6118508;23;20204;-65
2022/03/23 05:12:39;;;;;;;5.50;5.20;;;;;;;2.43;75.40;102497.38;6066040;23;20030;-65
2022/03/23 05:15:08;;;;;;;2.95;2.85;;;;;;;2.75;75.40;102565.97;6118220;23;20045;-65
2022/03/23 05:17:35;;;;;;;5.07;4.88;;;;;;;2.71;75.35;102561.59;6057589;23;20030;-65
2022/03/23 05:20:04;;;;;;;3.00;2.90;;;;;;;1.41;74.24;102366.75;6109413;23;20389;-65
2022/03/23 05:22:32;;;;;;;3.75;3.60;;;;;;;2.56;75.52;102562.28;6055981;23;20092;-65
2022/03/23 05:24:59;;;;;;;3.63;3.42;;;;;;;2.51;75.35;102566.56;6101665;23;20567;-65
2022/03/23 05:27:25;;;;;;;2.80;2.70;;;;;;;2.49;75.63;102568.28;6087773;23;20034;-66
2022/03/23 05:29:52;;;;;;;3.35;3.25;;;;;;;2.47;75.74;102566.53;6111472;23;20075;-66
2022/03/23 05:32:18;;;;;;;3.75;3.63;;;;;;;2.44;75.75;102556.97;6085327;23;20014;-65
2022/03/23 05:34:46;;;;;;;3.80;3.67;;;;;;;2.39;76.28;102556.94;6108615;23;20025;-65
2022/03/23 05:37:12;;;;;;;2.75;2.65;;;;;;;2.47;76.20;102564.81;6059047;23;20334;-65
2022/03/23 05:39:39;;;;;;;6.05;5.75;;;;;;;2.49;76.00;102573.47;6086421;23;20024;-65
2022/03/23 05:42:07;;;;;;;3.60;3.40;;;;;;;2.51;76.01;102563.13;6088842;23;20100;-65
2022/03/23 05:44:34;;;;;;;4.85;4.65;;;;;;;1.94;75.95;102475.22;6107967;23;20031;-65
2022/03/23 05:47:01;;;;;;;3.17;3.08;;;;;;;2.57;75.97;102568.38;6090082;23;20081;-65
2022/03/23 05:49:28;;;;;;;4.25;4.05;;;;;;;2.60;76.08;102574.44;6104252;23;20080;-66
2022/03/23 05:51:55;;;;;;;3.20;3.10;;;;;;;2.57;76.08;102564.06;6084018;23;20028;-65
2022/03/23 05:54:22;;;;;;;3.15;3.05;;;;;;;2.71;75.82;102592.72;6114980;23;20010;-66
2022/03/23 05:56:50;;;;;;;3.10;3.00;;;;;;;2.72;76.11;102580.63;6083798;23;20486;-66
2022/03/23 05:59:17;;;;;;;5.63;5.40;;;;;;;1.50;75.08;102372.03;6113581;23;20029;-65
2022/03/23 06:01:44;;;;;;;4.68;4.47;;;;;;;1.58;75.41;102398.00;6048838;23;20074;-66
2022/03/23 06:04:12;;;;;;;3.72;3.53;;;;;;;2.70;75.26;102578.00;6108406;23;20406;-66
2022/03/23 06:06:39;;;;;;;5.03;4.82;;;;;;;2.77;75.87;102581.56;6093998;23;20301;-66
2022/03/23 06:09:05;;;;;;;3.00;2.90;;;;;;;2.67;76.22;102546.88;6113605;23;20075;-66
2022/03/23 06:11:32;;;;;;;4.78;4.50;;;;;;;2.98;76.05;102579.16;6092082;23;20030;-66
2022/03/23 06:13:58;;;;;;;3.47;3.35;;;;;;;2.14;75.34;102441.78;6101444;23;20010;-66
2022/03/23 06:16:25;;;;;;;3.10;3.00;;;;;;;3.14;75.49;102564.59;6097535;23;20331;-66
2022/03/23 06:18:51;;;;;;;3.60;3.50;;;;;;;3.23;74.64;102574.19;6111176;23;20060;-66
2022/03/23 06:21:18;;;;;;;3.90;3.70;;;;;;;3.36;73.93;102586.41;6092349;23;20080;-66
2022/03/23 06:23:44;;;;;;;4.68;4.47;;;;;;;3.44;73.82;102589.06;6117114;23;20540;-66
2022/03/23 06:26:11;;;;;;;2.80;2.70;;;;;;;3.50;73.48;102596.03;6084013;23;20413;-66
2022/03/23 06:28:37;;;;;;;5.85;5.55;;;;;;;2.38;72.47;102397.13;6106968;23;20157;-66
2022/03/23 06:31:04;;;;;;;3.10;3.00;;;;;;;3.67;72.15;102589.25;6085747;23;20041;-65
2022/03/23 06:33:31;;;;;;;3.92;3.75;;;;;;;3.74;71.67;102587.56;6096029;23;20032;-66
2022/03/23 06:35:57;;;;;;;3.05;2.95;;;;;;;2.56;71.63;102403.34;6087486;23;20084;-65
2022/03/23 06:38:24;;;;;;;3.78;3.58;;;;;;;3.89;70.74;102592.84;6109619;23;20273;-65
2022/03/23 06:40:51;;;;;;;3.45;3.35;;;;;;;3.99;70.37;102592.06;6047948;23;20491;-68
2022/03/23 06:43:17;;;;;;;3.10;3.00;;;;;;;4.10;69.80;102596.44;6051590;23;20070;-67
2022/03/23 06:45:44;;;;;;;4.53;4.32;;;;;;;2.56;69.33;102321.25;6002367;23;20035;-66
2022/03/23 06:48:10;;;;;;;5.28;3.60;;;;;;;3.06;68.25;102389.88;6059689;23;20022;-65
2022/03/23 06:50:37;;;;;;;17.98;17.08;;;;;;;4.15;68.00;102560.94;5960402;23;20018;-64
2022/03/23 06:53:04;;;;;;;3.40;3.30;;;;;;;4.53;67.91;102614.81;5949985;23;20077;-65
2022/03/23 06:55:30;;;;;;;4.45;4.25;;;;;;;4.63;67.29;102598.41;6054939;23;20018;-65
2022/03/23 06:57:57;;;;;;;3.38;3.28;;;;;;;3.57;67.12;102427.38;6055095;23;20038;-67
2022/03/23 07:00:23;;;;;;;3.75;3.65;;;;;;;3.74;66.55;102401.47;6068682;23;20018;-65
2022/03/23 07:02:50;;;;;;;4.15;3.95;;;;;;;5.09;66.07;102603.72;6038794;23;20440;-65
2022/03/23 07:05:18;;;;;;;3.10;3.00;;;;;;;5.27;64.91;102608.06;6050554;23;20106;-65
2022/03/23 07:10:31;;;;;;;4.90;4.63;;;;;;;5.60;64.99;102607.19;6049405;23;20030;-65
2022/03/23 07:12:58;;;;;;;3.80;3.63;;;;;;;5.05;63.55;102487.47;6057915;23;20006;-65
2022/03/23 07:15:27;;;;;;;3.30;3.17;;;;;;;5.79;64.12;102587.19;6010093;23;20026;-66
2022/03/23 07:17:54;;;;;;;3.50;3.40;;;;;;;4.96;62.48;102420.69;6053550;23;20082;-65
2022/03/23 07:20:21;;;;;;;3.30;3.10;;;;;;;5.14;62.21;102435.41;6035898;23;20110;-66
2022/03/23 07:22:47;;;;;;;3.60;3.50;;;;;;;6.32;61.64;102597.50;6075601;23;20037;-66
2022/03/23 07:25:14;;;;;;;3.15;3.05;;;;;;;6.55;60.70;102607.81;6051841;23;20677;-65
2022/03/23 07:27:41;;;;;;;5.03;4.82;;;;;;;6.71;61.60;102609.47;6053061;23;20597;-65
2022/03/23 07:30:08;;;;;;;3.70;3.60;;;;;;;5.74;60.40;102432.63;6051541;23;20452;-65
2022/03/23 07:32:36;;;;;;;5.63;5.43;;;;;;;6.51;60.34;102531.31;6064824;23;20026;-65
2022/03/23 07:35:02;;;;;;;3.53;3.42;;;;;;;7.13;60.29;102615.31;6039924;23;20085;-65
2022/03/23 07:37:29;;;;;;;3.80;3.65;;;;;;;7.32;59.12;102610.84;6077350;23;20067;-65
2022/03/23 07:39:56;;;;;;;4.13;3.92;;;;;;;6.64;58.96;102463.44;6058309;23;20026;-65
2022/03/23 07:42:28;;;;;;;4.55;4.10;;;;;;;7.54;58.37;102592.38;6100618;23;20070;-65
2022/03/23 07:44:55;;;;;;;5.13;4.72;;;;;;;7.78;57.73;102620.88;6080597;23;20206;-65
2022/03/23 07:47:22;;;;;;;3.60;3.50;;;;;;;6.74;57.90;102416.38;6079537;23;20026;-65
2022/03/23 07:49:48;;;;;;;3.60;3.50;;;;;;;8.13;57.54;102622.25;6049351;23;20013;-66
2022/03/23 07:52:15;;;;;;;5.43;4.95;;;;;;;8.24;57.09;102613.41;6082172;23;20053;-65
2022/03/23 07:54:41;;;;;;;5.28;4.97;;;;;;;8.41;55.53;102600.16;6075433;23;20006;-67
2022/03/23 07:57:08;;;;;;;4.50;4.30;;;;;;;8.43;55.35;102591.41;6065429;23;20591;-67
2022/03/23 07:59:34;;;;;;;4.00;3.80;;;;;;;8.74;54.96;102620.69;6042955;23;20025;-66
2022/03/23 08:02:03;;;;;;;3.70;3.60;;;;;;;8.88;54.68;102627.47;6076035;23;20061;-65
2022/03/23 08:04:32;;;;;;;6.10;5.63;;;;;;;8.70;55.18;102589.31;6052129;23;20021;-65
2022/03/23 08:07:02;;;;;;;4.10;3.90;;;;;;;9.04;54.17;102630.72;6080349;23;20054;-65
2022/03/23 08:09:29;;;;;;;4.78;4.40;;;;;;;9.08;53.82;102628.06;6075894;23;20541;-65
2022/03/23 08:11:58;;;;;;;4.38;4.18;;;;;;;9.19;54.13;102643.59;6082642;23;20448;-65
2022/03/23 08:14:26;;;;;;;4.70;4.32;;;;;;;9.21;52.50;102630.50;6080961;23;20026;-65
2022/03/23 08:16:52;;;;;;;4.85;4.63;;;;;;;9.53;52.17;102649.16;6079384;23;20604;-67
2022/03/23 08:19:22;;;;;;;3.70;3.60;;;;;;;9.46;52.11;102646.66;6082474;23;20067;-64
2022/03/23 08:21:50;;;;;;;4.68;4.43;;;;;;;9.57;52.81;102644.75;6077167;23;20304;-65
2022/03/23 08:24:17;;;;;;;4.30;4.10;;;;;;;9.72;52.04;102654.09;6080849;23;20073;-67
2022/03/23 08:26:47;;;;;;;4.88;4.68;;;;;;;9.84;51.27;102643.41;6076285;23;20987;-67
2022/03/23 08:29:14;;;;;;;4.32;4.13;;;;;;;9.96;51.28;102652.81;6051999;23;20026;-66
2022/03/23 08:31:40;;;;;;;5.85;5.55;;;;;;;8.94;50.85;102465.03;6080232;23;20014;-67
2022/03/23 08:34:07;;;;;;;4.90;4.60;;;;;;;10.12;50.92;102641.16;6075761;23;20010;-65
2022/03/23 08:36:33;;;;;;;6.13;5.82;;;;;;;10.09;51.03;102633.31;6085859;23;20041;-66
2022/03/23 08:39:00;;;;;;;4.30;4.10;;;;;;;10.20;50.67;102643.59;6080147;23;20084;-65
2022/03/23 08:41:33;;;;;;;5.43;5.13;;;;;;;10.25;51.12;102620.78;6082808;23;20088;-66
2022/03/23 08:43:59;;;;;;;4.40;4.20;;;;;;;10.40;50.38;102635.38;6077335;23;20089;-66
2022/03/23 08:46:27;;;;;;;4.50;4.30;;;;;;;10.45;49.49;102645.81;6068953;23;20109;-66
2022/03/23 08:48:54;;;;;;;4.40;4.20;;;;;;;9.73;49.77;102475.78;6089386;23;20439;-66
2022/03/23 08:51:20;;;;;;;4.18;3.97;;;;;;;10.45;48.88;102612.53;6079708;23;20086;-66
2022/03/23 08:53:47;;;;;;;5.10;4.90;;;;;;;10.68;49.32;102638.28;6066054;23;20094;-66
2022/03/23 08:56:14;;;;;;;5.13;4.82;;;;;;;9.76;47.56;102452.16;6072067;23;20042;-66
2022/03/23 08:58:47;;;;;;;7.07;6.63;;;;;;;11.01;48.08;102640.22;6072301;23;20226;-68
2022/03/23 09:01:15;;;;;;;4.47;4.28;;;;;;;11.04;47.67;102645.38;6070152;23;20022;-67
2022/03/23 09:03:43;;;;;;;6.63;6.03;;;;;;;11.04;47.88;102606.84;6058282;23;20018;-65
2022/03/23 09:06:10;;;;;;;5.32;5.03;;;;;;;11.38;47.04;102625.31;6075732;23;20040;-65
2022/03/23 09:08:37;;;;;;;7.25;6.78;;;;;;;10.24;47.21;102411.72;6059907;23;20057;-65
2022/03/23 09:11:04;;;;;;;4.93;4.70;;;;;;;10.68;46.46;102496.47;6063882;23;20530;-65
2022/03/23 09:13:31;;;;;;;6.72;6.32;;;;;;;11.57;46.70;102640.63;6063934;23;20447;-66
2022/03/23 09:15:57;;;;;;;4.82;4.53;;;;;;;11.72;46.33;102634.09;6091296;23;20140;-66
2022/03/23 09:18:26;;;;;;;4.82;4.53;;;;;;;11.67;45.10;102641.25;6082747;23;20029;-68
2022/03/23 09:20:53;;;;;;;4.72;4.53;;;;;;;11.65;45.64;102607.09;6072954;23;20013;-68
2022/03/23 09:23:20;;;;;;;5.68;5.38;;;;;;;12.06;44.95;102622.72;6073968;23;20487;-68
2022/03/23 09:25:49;;;;;;;4.95;4.75;;;;;;;12.40;45.49;102648.94;6075803;23;20296;-66
2022/03/23 09:28:15;;;;;;;5.07;4.88;;;;;;;12.41;45.27;102639.25;6070371;23;20068;-68
2022/03/23 09:30:42;;;;;;;6.70;6.18;;;;;;;11.14;44.61;102432.28;6059755;23;20022;-66
2022/03/23 09:33:09;;;;;;;4.95;4.75;;;;;;;12.36;45.68;102621.81;6075176;23;20036;-66
2022/03/23 09:35:35;;;;;;;6.32;5.93;;;;;;;12.38;45.20;102592.81;6079586;23;20033;-66
2022/03/23 09:38:03;;;;;;;5.03;4.80;;;;;;;12.44;44.52;102610.22;6051904;23;20905;-66
2022/03/23 09:40:32;;;;;;;5.45;5.20;;;;;;;12.86;43.75;102634.41;6091908;23;20026;-65
2022/03/23 09:43:02;;;;;;;5.90;5.60;;;;;;;12.85;45.49;102622.16;6065936;23;20010;-66
2022/03/23 09:47:59;;;;;;;5.00;4.75;;;;;;;12.89;43.24;102625.53;6092391;23;20018;-66
2022/03/23 09:50:29;;;;;;;5.85;5.35;;;;;;;13.09;43.77;102623.16;6091589;23;20029;-66
2022/03/23 09:52:56;;;;;;;5.60;5.20;;;;;;;13.03;44.11;102633.91;6080727;23;20140;-66
2022/03/23 09:55:23;;;;;;;4.45;4.25;;;;;;;13.17;42.85;102615.00;6087689;23;20032;-66
2022/03/23 09:57:55;;;;;;;5.30;5.00;;;;;;;13.22;44.29;102615.69;6090752;23;20233;-67
2022/03/23 10:00:22;;;;;;;5.90;5.35;;;;;;;13.64;43.75;102614.38;6089636;23;20018;-66
2022/03/23 10:02:57;;;;;;;5.47;5.18;;;;;;;13.79;44.54;102616.47;6091193;23;20961;-66
2022/03/23 10:06:01;;;;;;;6.38;5.78;;;;;;;13.97;44.00;102614.94;6091782;23;20291;-67
2022/03/23 10:08:47;;;;;;;5.25;4.95;;;;;;;13.89;42.67;102615.25;6060573;23;20085;-66
2022/03/23 10:11:51;;;;;;;9.90;5.35;;;;;;;14.28;42.11;102621.75;6073260;23;20085;-66
2022/03/23 10:14:54;;;;;;;6.65;6.15;;;;;;;14.41;41.73;102619.50;6055305;23;20014;-66
2022/03/23 10:17:49;;;;;;;6.43;6.03;;;;;;;14.35;42.59;102618.84;6089147;23;20049;-66
2022/03/23 10:20:15;;;;;;;6.07;5.55;;;;;;;14.19;39.30;102601.81;6048632;23;20383;-66
2022/03/23 10:22:50;;;;;;;7.47;7.07;;;;;;;14.39;40.78;102598.44;6086816;23;20503;-67
2022/03/23 10:25:19;;;;;;;6.03;5.57;;;;;;;14.21;39.85;102605.25;6084923;23;20085;-66
2022/03/23 10:27:46;;;;;;;6.82;6.43;;;;;;;14.32;40.78;102613.66;6080202;23;20105;-66
2022/03/23 10:30:14;;;;;;;9.23;6.22;;;;;;;13.83;40.76;102459.75;6082480;23;20088;-66
2022/03/23 10:32:44;;;;;;;8.70;7.35;;;;;;;14.95;39.03;102608.63;6090458;23;20085;-67
2022/03/23 10:35:15;;;;;;;7.72;7.10;;;;;;;14.85;39.31;102590.53;6089886;23;20018;-66
2022/03/23 10:37:45;;;;;;;7.13;6.72;;;;;;;15.01;38.93;102614.59;6076697;23;20085;-67
2022/03/23 10:40:17;;;;;;;6.38;6.00;;;;;;;14.84;37.99;102588.84;6096806;23;20097;-66
2022/03/23 10:42:45;;;;;;;8.23;7.68;;;;;;;15.12;40.00;102609.72;6093014;23;20018;-67
2022/03/23 10:45:19;;;;;;;6.88;6.22;;;;;;;15.32;38.67;102608.91;6090351;23;20040;-67
2022/03/23 10:47:47;;;;;;;7.55;6.85;;;;;;;15.14;37.26;102608.75;6079980;23;20014;-66
2022/03/23 10:50:15;;;;;;;6.43;5.95;;;;;;;15.37;36.63;102617.50;6090562;23;20085;-66
2022/03/23 10:53:02;;;;;;;8.75;8.07;;;;;;;15.55;38.89;102605.28;6067089;23;20076;-65
2022/03/23 10:55:32;;;;;;;7.07;6.57;;;;;;;15.67;38.25;102602.09;6082601;23;20026;-66
2022/03/23 10:57:58;;;;;;;5.70;5.40;;;;;;;16.03;36.41;102606.75;6073078;23;20454;-66
2022/03/23 11:00:30;;;;;;;5.60;5.20;;;;;;;15.57;34.49;102516.09;6073759;23;20101;-65
2022/03/23 11:02:59;;;;;;;5.75;5.45;;;;;;;16.33;34.61;102595.69;6090325;23;20028;-66
2022/03/23 11:05:41;;;;;;;8.00;7.40;;;;;;;16.61;33.71;102597.06;6087325;23;20036;-66
2022/03/23 11:08:08;;;;;;;6.18;5.80;;;;;;;16.63;34.34;102604.00;6036333;23;20030;-66
2022/03/23 11:16:09;;;;;;;9.95;6.30;;;;;;;16.99;32.97;102565.22;6077048;23;20081;-66
2022/03/23 11:18:36;;;;;;;7.78;7.10;;;;;;;17.10;33.04;102592.94;6081763;23;20046;-66
2022/03/23 11:21:03;;;;;;;7.50;6.45;;;;;;;17.06;33.11;102591.38;6078414;23;20088;-66
2022/03/23 11:23:37;;;;;;;6.65;6.20;;;;;;;17.14;33.12;102583.88;6060766;23;20032;-66
2022/03/23 11:26:08;;;;;;;5.65;5.35;;;;;;;17.28;33.97;102584.97;6080399;23;20044;-67
2022/03/23 11:28:39;;;;;;;7.38;6.97;;;;;;;17.55;33.16;102578.25;6083658;23;20087;-67
2022/03/23 11:31:09;;;;;;;6.53;6.13;;;;;;;17.69;31.93;102574.03;6079598;23;20490;-66
2022/03/23 11:33:37;;;;;;;8.15;7.72;;;;;;;16.85;33.13;102435.94;6071685;23;20108;-64
2022/03/23 11:36:11;;;;;;;5.60;5.30;;;;;;;17.81;33.08;102576.03;6074617;23;20030;-64
2022/03/23 11:38:39;;;;;;;8.50;7.88;;;;;;;17.06;31.91;102434.84;6061496;23;20033;-64
2022/03/23 11:41:08;;;;;;;6.75;6.35;;;;;;;18.16;31.73;102572.47;6051267;23;20045;-65
2022/03/23 11:43:36;;;;;;;8.63;8.13;;;;;;;18.26;31.51;102571.88;6081211;23;20028;-64
2022/03/23 11:46:22;;;;;;;6.43;6.03;;;;;;;18.31;30.53;102568.97;6077158;23;20033;-66
2022/03/23 11:49:10;;;;;;;6.82;6.43;;;;;;;18.22;30.92;102567.69;6071590;23;20363;-65
2022/03/23 11:52:15;;;;;;;11.27;7.85;;;;;;;18.31;31.53;102561.00;6072621;23;20022;-66
2022/03/23 11:57:48;;;;;;;9.57;8.75;;;;;;;18.50;31.06;102566.13;6064456;23;20096;-65
2022/03/23 12:00:19;;;;;;;6.43;5.88;;;;;;;18.69;30.16;102556.19;6077322;23;20208;-65